createdAt,value
2019-03-25T00:01:13.092Z,76.60
2019-03-25T00:03:42.621Z,71.00
2019-03-25T00:06:12.091Z,72.50
2019-03-25T00:08:41.539Z,75.23
2019-03-25T00:11:11.374Z,70.43
2019-03-25T00:13:40.841Z,70.07
2019-03-25T00:16:10.333Z,68.33
2019-03-25T00:18:39.811Z,72.13
2019-03-25T00:21:09.282Z,63.47
2019-03-25T00:23:38.744Z,69.53
2019-03-25T00:26:08.226Z,69.77
2019-03-25T00:28:37.680Z,66.27
2019-03-25T00:31:07.150Z,67.47
2019-03-25T00:33:36.961Z,63.20
2019-03-25T00:36:06.422Z,64.77
2019-03-25T00:38:35.873Z,57.83
2019-03-25T00:41:05.674Z,60.67
2019-03-25T00:43:35.130Z,61.30
2019-03-25T00:46:04.588Z,66.70
2019-03-25T00:48:34.060Z,57.07
2019-03-25T00:51:03.509Z,55.20
2019-03-25T00:53:32.994Z,55.63
2019-03-25T00:56:02.520Z,55.77
2019-03-25T00:58:32.005Z,57.57
2019-03-25T01:01:01.906Z,58.37
2019-03-25T01:03:31.396Z,54.23
2019-03-25T01:06:01.042Z,50.97
2019-03-25T01:08:31.657Z,47.80
2019-03-25T01:11:03.785Z,56.23
2019-03-25T01:13:33.261Z,49.80
2019-03-25T01:16:03.036Z,53.20
2019-03-25T01:18:32.518Z,47.33
2019-03-25T01:21:02.253Z,55.43
2019-03-25T01:23:31.729Z,48.90
2019-03-25T01:26:01.197Z,50.87
2019-03-25T01:28:30.827Z,43.07
2019-03-25T01:31:00.749Z,45.00
2019-03-25T01:33:30.229Z,50.63
2019-03-25T01:35:59.654Z,46.80
2019-03-25T01:38:29.157Z,55.30
2019-03-25T01:40:58.629Z,40.20
2019-03-25T01:43:28.097Z,47.83
2019-03-25T01:45:57.619Z,39.87
2019-03-25T01:48:27.095Z,47.10
2019-03-25T01:50:56.843Z,42.40
2019-03-25T01:53:26.306Z,37.43
2019-03-25T01:55:55.767Z,35.97
2019-03-25T01:58:25.233Z,37.67
2019-03-25T02:00:54.971Z,44.63
2019-03-25T02:03:25.022Z,38.23
2019-03-25T02:05:54.588Z,44.90
2019-03-25T02:08:24.440Z,47.97
2019-03-25T02:10:54.323Z,47.40
2019-03-25T02:13:23.882Z,36.20
2019-03-25T02:15:53.738Z,52.00
2019-03-25T02:18:23.658Z,38.33
2019-03-25T02:20:53.392Z,49.90
2019-03-25T02:23:23.155Z,35.67
2019-03-25T02:25:52.885Z,42.20
2019-03-25T02:28:22.734Z,48.63
2019-03-25T02:30:52.350Z,40.87
2019-03-25T02:33:22.203Z,50.73
2019-03-25T02:35:51.820Z,45.30
2019-03-25T02:38:21.767Z,46.97
2019-03-25T02:40:51.582Z,51.07
2019-03-25T02:43:21.597Z,46.80
2019-03-25T02:45:51.326Z,43.47
2019-03-25T02:48:20.968Z,47.00
2019-03-25T02:50:50.511Z,42.73
2019-03-25T02:53:19.964Z,44.97
2019-03-25T02:55:49.698Z,44.30
2019-03-25T02:58:19.239Z,42.90
2019-03-25T03:00:48.704Z,51.37
2019-03-25T03:03:18.579Z,53.73
2019-03-25T03:05:48.319Z,50.80
2019-03-25T03:08:18.150Z,47.07
2019-03-25T03:10:47.885Z,56.00
2019-03-25T03:13:17.771Z,47.33
2019-03-25T03:15:47.396Z,57.73
2019-03-25T03:18:16.876Z,53.10
2019-03-25T03:20:46.499Z,56.03
2019-03-25T03:23:16.016Z,54.23
2019-03-25T03:25:57.101Z,52.80
2019-03-25T03:28:16.896Z,58.50
2019-03-25T03:30:46.421Z,55.47
2019-03-25T03:33:15.902Z,52.57
2019-03-25T03:35:46.672Z,53.97
2019-03-25T03:38:16.535Z,54.07
2019-03-25T03:40:45.985Z,57.90
2019-03-25T03:43:15.781Z,50.37
2019-03-25T03:45:45.256Z,54.47
2019-03-25T03:48:14.711Z,50.13
2019-03-25T03:50:44.401Z,55.87
2019-03-25T03:53:13.871Z,53.03
2019-03-25T03:55:43.332Z,44.67
2019-03-25T03:58:12.912Z,38.37
2019-03-25T04:00:42.363Z,43.63
2019-03-25T04:03:11.848Z,36.63
2019-03-25T04:05:41.296Z,36.97
2019-03-25T04:08:11.014Z,37.70
2019-03-25T04:10:40.800Z,38.13
2019-03-25T04:13:10.358Z,31.87
2019-03-25T04:15:40.217Z,44.53
2019-03-25T04:18:09.671Z,36.43
2019-03-25T04:20:39.129Z,42.47
2019-03-25T04:23:08.604Z,38.53
2019-03-25T04:25:38.066Z,43.20
2019-03-25T04:28:07.540Z,33.13
2019-03-25T04:30:36.993Z,38.13
2019-03-25T04:33:06.463Z,31.27
2019-03-25T04:35:35.923Z,39.43
2019-03-25T04:38:05.513Z,31.20
2019-03-25T04:40:35.931Z,43.17
2019-03-25T04:43:05.693Z,36.80
2019-03-25T04:45:35.158Z,35.87
2019-03-25T04:48:04.607Z,48.20
2019-03-25T04:50:34.246Z,39.93
2019-03-25T04:53:08.360Z,41.87
2019-03-25T04:55:37.813Z,42.53
2019-03-25T04:58:07.303Z,51.10
2019-03-25T05:00:37.040Z,44.17
2019-03-25T05:03:07.098Z,41.07
2019-03-25T05:05:36.739Z,54.43
2019-03-25T05:08:06.253Z,44.90
2019-03-25T05:10:35.705Z,37.10
2019-03-25T05:13:05.190Z,51.67
2019-03-25T05:15:34.930Z,38.97
2019-03-25T05:18:04.460Z,51.03
2019-03-25T05:20:33.913Z,45.00
2019-03-25T05:23:03.663Z,46.90
2019-03-25T05:25:33.117Z,37.83
2019-03-25T05:28:02.576Z,46.43
2019-03-25T05:30:32.038Z,45.50
2019-03-25T05:33:01.489Z,36.60
2019-03-25T05:35:31.271Z,45.63
2019-03-25T05:38:00.728Z,38.70
2019-03-25T05:40:30.200Z,36.47
2019-03-25T05:42:59.660Z,39.73
2019-03-25T05:45:29.131Z,34.27
2019-03-25T05:47:58.922Z,43.63
2019-03-25T05:50:30.020Z,27.30
2019-03-25T05:52:59.474Z,27.90
2019-03-25T05:55:28.928Z,27.80
2019-03-25T05:57:58.846Z,27.97
2019-03-25T06:00:29.959Z,27.03
2019-03-25T06:02:59.403Z,24.50
2019-03-25T06:05:28.866Z,26.53
2019-03-25T06:07:58.339Z,31.57
2019-03-25T06:10:27.778Z,21.07
2019-03-25T06:12:57.556Z,25.27
2019-03-25T06:15:27.019Z,28.57
2019-03-25T06:17:56.472Z,25.60
2019-03-25T06:20:25.928Z,23.43
2019-03-25T06:22:55.394Z,24.77
2019-03-25T06:25:24.850Z,25.83
2019-03-25T06:27:54.444Z,17.93
2019-03-25T06:30:23.972Z,23.37
2019-03-25T06:32:58.307Z,19.77
2019-03-25T06:35:35.482Z,21.17
2019-03-25T06:38:09.606Z,19.00
2019-03-25T06:40:45.903Z,20.70
2019-03-25T06:43:17.066Z,18.70
2019-03-25T06:45:53.885Z,17.83
2019-03-25T06:48:30.046Z,18.67
2019-03-25T06:51:07.009Z,20.63
2019-03-25T06:53:42.624Z,18.77
2019-03-25T06:56:21.295Z,20.50
2019-03-25T06:58:57.255Z,16.77
2019-03-25T07:01:50.875Z,12.83
2019-03-25T07:04:28.305Z,18.07
2019-03-25T07:06:59.656Z,11.33
2019-03-25T07:09:37.894Z,15.47
2019-03-25T07:12:30.693Z,13.20
2019-03-25T07:15:06.323Z,16.07
2019-03-25T07:17:46.369Z,10.77
2019-03-25T07:20:29.765Z,13.40
2019-03-25T07:22:59.292Z,15.57
2019-03-25T07:25:32.265Z,14.80
2019-03-25T07:28:05.232Z,15.60
2019-03-25T07:30:36.468Z,13.67
2019-03-25T07:33:15.499Z,15.20
2019-03-25T07:35:49.483Z,13.90
2019-03-25T07:38:28.752Z,11.07
2019-03-25T07:41:05.271Z,13.03
2019-03-25T07:43:43.790Z,14.27
2019-03-25T07:46:14.832Z,16.20
2019-03-25T07:48:48.238Z,15.40
2019-03-25T07:51:19.727Z,13.17
2019-03-25T07:54:09.257Z,16.97
2019-03-25T07:56:32.613Z,13.63
2019-03-25T07:59:05.960Z,13.83
2019-03-25T08:01:38.964Z,11.93
2019-03-25T08:04:20.730Z,17.23
2019-03-25T08:06:54.025Z,17.60
2019-03-25T08:09:32.702Z,17.17
2019-03-25T08:12:13.498Z,16.20
2019-03-25T08:14:46.168Z,14.33
2019-03-25T08:17:27.537Z,17.17
2019-03-25T08:20:10.642Z,14.80
2019-03-25T08:22:54.348Z,17.67
2019-03-25T08:25:32.546Z,18.40
2019-03-25T08:28:08.288Z,16.97
2019-03-25T08:30:50.821Z,13.87
2019-03-25T08:33:20.323Z,22.80
2019-03-25T08:35:55.801Z,21.37
2019-03-25T08:38:36.332Z,30.17
2019-03-25T08:41:05.857Z,22.13
2019-03-25T08:43:35.324Z,25.47
2019-03-25T08:46:05.116Z,29.70
2019-03-25T08:48:34.593Z,21.23
2019-03-25T08:51:04.061Z,30.20
2019-03-25T08:53:33.527Z,26.43
2019-03-25T08:56:03.082Z,27.23
2019-03-25T08:58:32.522Z,24.40
2019-03-25T09:01:02.442Z,30.33
2019-03-25T09:03:31.893Z,32.47
2019-03-25T09:06:00.963Z,34.47
2019-03-25T09:08:30.409Z,29.90
2019-03-25T09:10:59.868Z,37.20
2019-03-25T09:13:29.903Z,40.93
2019-03-25T09:15:59.385Z,36.67
2019-03-25T09:18:28.827Z,44.23
2019-03-25T09:20:58.351Z,31.67
2019-03-25T09:23:27.807Z,40.37
2019-03-25T09:25:57.259Z,34.97
2019-03-25T09:28:26.709Z,36.00
2019-03-25T09:30:59.342Z,33.03
2019-03-25T09:33:28.786Z,25.70
2019-03-25T09:35:58.363Z,37.23
2019-03-25T09:38:27.773Z,29.67
2019-03-25T09:40:57.241Z,28.47
2019-03-25T09:43:26.695Z,25.80
2019-03-25T09:45:56.151Z,21.33
2019-03-25T09:48:25.595Z,20.17
2019-03-25T09:50:55.050Z,20.17
2019-03-25T09:53:24.495Z,22.50
2019-03-25T09:55:54.004Z,21.53
2019-03-25T09:58:35.371Z,16.27
2019-03-25T10:00:54.898Z,20.30
2019-03-25T10:03:24.342Z,16.23
2019-03-25T10:05:53.796Z,17.53
2019-03-25T10:08:23.261Z,13.40
2019-03-25T10:10:52.745Z,12.07
2019-03-25T10:13:22.207Z,10.97
2019-03-25T10:15:51.679Z,12.30
2019-03-25T10:18:21.135Z,10.37
2019-03-25T10:20:50.583Z,8.00
2019-03-25T10:23:20.962Z,8.73
2019-03-25T10:25:50.403Z,11.83
2019-03-25T10:28:19.847Z,11.03
2019-03-25T10:30:49.320Z,12.23
2019-03-25T10:33:18.763Z,15.90
2019-03-25T10:35:48.484Z,10.97
2019-03-25T10:38:19.747Z,16.47
2019-03-25T10:40:49.604Z,10.53
2019-03-25T10:43:19.038Z,9.60
2019-03-25T10:45:48.496Z,7.60
2019-03-25T10:48:17.935Z,11.07
2019-03-25T10:50:47.370Z,6.83
2019-03-25T10:53:17.062Z,9.00
2019-03-25T10:55:46.504Z,6.57
2019-03-25T10:58:15.994Z,8.37
2019-03-25T11:00:45.718Z,7.47
2019-03-25T11:03:15.176Z,7.83
2019-03-25T11:05:44.778Z,10.43
2019-03-25T11:08:14.463Z,6.97
2019-03-25T11:10:43.907Z,7.43
2019-03-25T11:13:13.938Z,8.63
2019-03-25T11:15:43.396Z,5.53
2019-03-25T11:18:12.873Z,6.87
2019-03-25T11:20:42.342Z,4.87
2019-03-25T11:23:11.809Z,5.50
2019-03-25T11:25:41.257Z,5.00
2019-03-25T11:28:12.323Z,3.20
2019-03-25T11:30:56.004Z,6.37
2019-03-25T11:33:26.992Z,8.23
2019-03-25T11:35:56.445Z,9.10
2019-03-25T11:38:25.887Z,8.67
2019-03-25T11:40:55.396Z,6.17
2019-03-25T11:43:24.848Z,7.50
2019-03-25T11:45:54.357Z,5.07
2019-03-25T11:48:24.128Z,7.50
2019-03-25T11:50:53.839Z,6.63
2019-03-25T11:53:23.352Z,3.43
2019-03-25T11:55:52.874Z,6.77
2019-03-25T11:58:22.320Z,7.03
2019-03-25T12:00:51.792Z,7.00
2019-03-25T12:03:21.317Z,6.97
2019-03-25T12:05:50.778Z,7.13
2019-03-25T12:08:20.227Z,7.53
2019-03-25T12:10:49.987Z,7.30
2019-03-25T12:13:19.453Z,7.40
2019-03-25T12:15:48.894Z,8.33
2019-03-25T12:18:18.722Z,5.83
2019-03-25T12:20:48.157Z,7.70
2019-03-25T12:23:25.981Z,7.90
2019-03-25T12:25:48.761Z,7.50
2019-03-25T12:28:20.536Z,8.97
2019-03-25T12:30:50.127Z,6.90
2019-03-25T12:33:19.916Z,6.40
2019-03-25T12:35:49.408Z,7.00
2019-03-25T12:38:18.865Z,7.00
2019-03-25T12:40:48.315Z,3.97
2019-03-25T12:43:17.764Z,5.60
2019-03-25T12:45:47.210Z,8.43
2019-03-25T12:48:16.746Z,6.00
2019-03-25T12:50:46.204Z,6.63
2019-03-25T12:53:15.987Z,5.93
2019-03-25T12:55:45.459Z,6.07
2019-03-25T12:58:14.913Z,8.83
2019-03-25T13:00:44.907Z,5.87
2019-03-25T13:03:14.369Z,8.63
2019-03-25T13:05:43.872Z,6.13
2019-03-25T13:08:13.319Z,5.53
2019-03-25T13:10:42.771Z,4.57
2019-03-25T13:13:12.540Z,3.80
2019-03-25T13:15:41.973Z,5.47
2019-03-25T13:18:11.424Z,5.60
2019-03-25T13:20:40.868Z,3.73
2019-03-25T13:23:10.330Z,7.60
2019-03-25T13:25:39.782Z,3.67
2019-03-25T13:28:09.245Z,5.07
2019-03-25T13:30:38.683Z,4.20
2019-03-25T13:33:08.196Z,4.23
2019-03-25T13:35:37.636Z,5.67
2019-03-25T13:38:07.105Z,5.07
2019-03-25T13:40:36.551Z,5.47
2019-03-25T13:43:06.012Z,6.10
2019-03-25T13:45:35.460Z,5.50
2019-03-25T13:48:04.914Z,3.67
2019-03-25T13:50:34.359Z,4.90
2019-03-25T13:53:03.835Z,5.37
2019-03-25T13:55:33.266Z,6.53
2019-03-25T13:58:02.732Z,6.03
2019-03-25T14:00:36.892Z,4.37
2019-03-25T14:03:06.345Z,6.30
2019-03-25T14:05:36.132Z,6.87
2019-03-25T14:08:05.648Z,7.10
2019-03-25T14:10:35.074Z,9.73
2019-03-25T14:13:04.781Z,5.17
2019-03-25T14:15:34.211Z,8.83
2019-03-25T14:18:03.666Z,9.37
2019-03-25T14:20:33.100Z,9.13
2019-03-25T14:23:02.875Z,11.60
2019-03-25T14:25:32.328Z,8.23
2019-03-25T14:28:02.003Z,8.67
2019-03-25T14:30:32.003Z,8.83
2019-03-25T14:33:01.453Z,10.33
2019-03-25T14:35:30.901Z,9.17
2019-03-25T14:38:00.335Z,5.93
2019-03-25T14:40:29.770Z,6.10
2019-03-25T14:42:59.496Z,10.17
2019-03-25T14:45:28.938Z,6.13
2019-03-25T14:47:58.747Z,6.87
2019-03-25T14:50:28.185Z,7.53
2019-03-25T14:52:57.893Z,8.63
2019-03-25T14:55:27.345Z,6.07
2019-03-25T14:57:56.885Z,8.30
2019-03-25T15:00:27.814Z,6.70
2019-03-25T15:02:57.272Z,4.73
2019-03-25T15:05:26.922Z,5.83
2019-03-25T15:07:56.605Z,4.50
2019-03-25T15:10:26.023Z,5.80
2019-03-25T15:12:55.496Z,4.97
2019-03-25T15:15:24.926Z,3.53
2019-03-25T15:17:54.377Z,4.53
2019-03-25T15:20:23.831Z,9.70
2019-03-25T15:22:53.272Z,6.93
2019-03-25T15:25:22.718Z,9.07
2019-03-25T15:27:53.025Z,5.37
2019-03-25T15:30:22.514Z,5.13
2019-03-25T15:32:51.950Z,4.50
2019-03-25T15:35:21.425Z,4.60
2019-03-25T15:37:51.157Z,5.17
2019-03-25T15:40:21.052Z,6.63
2019-03-25T15:42:50.477Z,5.80
2019-03-25T15:45:19.945Z,5.23
2019-03-25T15:47:49.389Z,7.50
2019-03-25T15:50:18.912Z,5.13
2019-03-25T15:52:48.734Z,6.60
2019-03-25T15:55:18.231Z,5.10
2019-03-25T15:57:47.696Z,6.80
2019-03-25T16:00:21.289Z,7.20
2019-03-25T16:02:50.727Z,9.20
2019-03-25T16:05:20.179Z,9.13
2019-03-25T16:07:49.686Z,6.13
2019-03-25T16:10:19.337Z,6.83
2019-03-25T16:12:48.813Z,10.10
2019-03-25T16:15:38.856Z,9.30
2019-03-25T16:18:08.366Z,6.80
2019-03-25T16:20:37.903Z,6.43
2019-03-25T16:23:08.372Z,10.23
2019-03-25T16:25:37.826Z,7.33
2019-03-25T16:28:07.271Z,7.03
2019-03-25T16:30:36.749Z,10.67
2019-03-25T16:33:06.371Z,6.33
2019-03-25T16:35:35.834Z,4.97
2019-03-25T16:38:05.287Z,8.27
2019-03-25T16:40:34.740Z,5.70
2019-03-25T16:43:04.194Z,3.43
2019-03-25T16:45:33.664Z,3.03
2019-03-25T16:48:03.112Z,3.80
2019-03-25T16:50:32.591Z,4.30
2019-03-25T16:53:02.028Z,7.27
2019-03-25T16:55:31.489Z,7.47
2019-03-25T16:58:00.934Z,5.73
2019-03-25T17:00:30.381Z,4.97
2019-03-25T17:02:59.895Z,7.37
2019-03-25T17:05:29.692Z,7.43
2019-03-25T17:07:59.112Z,10.20
2019-03-25T17:10:28.584Z,5.43
2019-03-25T17:12:58.032Z,6.90
2019-03-25T17:15:27.507Z,10.83
2019-03-25T17:17:56.956Z,6.93
2019-03-25T17:20:26.719Z,9.17
2019-03-25T17:22:56.167Z,7.13
2019-03-25T17:25:25.915Z,6.10
2019-03-25T17:27:55.481Z,8.07
2019-03-25T17:30:25.182Z,7.47
2019-03-25T17:32:54.690Z,6.47
2019-03-25T17:35:24.195Z,9.20
2019-03-25T17:37:54.068Z,6.67
2019-03-25T17:40:23.562Z,7.63
2019-03-25T17:42:52.984Z,9.97
2019-03-25T17:45:22.455Z,9.07
2019-03-25T17:47:51.895Z,8.83
2019-03-25T17:50:21.352Z,7.73
2019-03-25T17:52:50.814Z,7.37
2019-03-25T17:55:20.266Z,7.47
2019-03-25T17:57:49.722Z,11.20
2019-03-25T18:00:25.410Z,24.23
2019-03-25T18:02:54.896Z,30.50
2019-03-25T18:05:24.373Z,25.20
2019-03-25T18:07:53.829Z,16.37
2019-03-25T18:10:23.284Z,24.03
2019-03-25T18:12:52.767Z,18.07
2019-03-25T18:15:22.226Z,14.33
2019-03-25T18:17:51.726Z,15.77
2019-03-25T18:20:21.214Z,17.93
2019-03-25T18:22:50.683Z,13.50
2019-03-25T18:25:20.307Z,24.97
2019-03-25T18:27:50.029Z,19.67
2019-03-25T18:30:28.471Z,15.77
2019-03-25T18:32:57.929Z,17.20
2019-03-25T18:35:28.273Z,15.47
2019-03-25T18:37:57.799Z,14.77
2019-03-25T18:40:27.283Z,18.43
2019-03-25T18:42:57.103Z,14.57
2019-03-25T18:45:26.572Z,18.50
2019-03-25T18:47:56.252Z,19.80
2019-03-25T18:50:25.704Z,13.00
2019-03-25T18:52:56.907Z,17.47
2019-03-25T18:55:26.566Z,14.53
2019-03-25T18:57:56.212Z,15.20
2019-03-25T19:00:33.323Z,14.73
2019-03-25T19:03:03.142Z,17.87
2019-03-25T19:05:32.884Z,17.53
2019-03-25T19:08:04.137Z,15.07
2019-03-25T19:10:33.739Z,18.73
2019-03-25T19:13:03.226Z,15.30
2019-03-25T19:15:32.972Z,14.83
2019-03-25T19:18:02.416Z,16.93
2019-03-25T19:20:31.906Z,16.23
2019-03-25T19:23:01.705Z,17.80
2019-03-25T19:25:31.155Z,11.93
2019-03-25T19:28:00.596Z,14.30
2019-03-25T19:30:30.062Z,14.50
2019-03-25T19:32:59.518Z,14.67
2019-03-25T19:35:30.189Z,13.00
2019-03-25T19:37:59.833Z,17.13
2019-03-25T19:40:29.365Z,13.73
2019-03-25T19:42:58.776Z,19.73
2019-03-25T19:45:28.568Z,15.13
2019-03-25T19:47:58.055Z,14.97
2019-03-25T19:50:27.484Z,15.23
2019-03-25T19:52:56.933Z,13.27
2019-03-25T19:55:26.727Z,12.63
2019-03-25T19:57:56.173Z,16.90
2019-03-25T20:00:37.016Z,15.80
2019-03-25T20:03:06.734Z,15.50
2019-03-25T20:05:36.373Z,15.17
2019-03-25T20:08:06.456Z,22.57
2019-03-25T20:10:37.877Z,17.83
2019-03-25T20:13:07.541Z,18.27
2019-03-25T20:15:45.907Z,17.73
2019-03-25T20:18:08.289Z,18.87
2019-03-25T20:20:37.749Z,17.30
2019-03-25T20:23:07.544Z,16.13
2019-03-25T20:25:36.989Z,19.53
2019-03-25T20:28:06.549Z,16.93
2019-03-25T20:30:36.327Z,19.63
2019-03-25T20:33:05.943Z,25.33
2019-03-25T20:35:35.436Z,23.47
2019-03-25T20:38:04.865Z,20.30
2019-03-25T20:40:34.326Z,22.07
2019-03-25T20:43:03.787Z,21.67
2019-03-25T20:45:33.280Z,24.43
2019-03-25T20:48:02.745Z,19.43
2019-03-25T20:50:32.214Z,21.47
2019-03-25T20:53:01.683Z,24.43
2019-03-25T20:55:31.229Z,22.73
2019-03-25T20:58:04.520Z,24.20
2019-03-25T21:00:47.244Z,19.33
2019-03-25T21:03:16.910Z,18.07
2019-03-25T21:05:46.431Z,16.77
2019-03-25T21:08:16.160Z,18.00
2019-03-25T21:10:45.914Z,19.63
2019-03-25T21:13:15.374Z,14.80
2019-03-25T21:15:44.873Z,19.73
2019-03-25T21:18:14.629Z,15.70
2019-03-25T21:20:44.081Z,19.00
2019-03-25T21:23:13.884Z,16.83
2019-03-25T21:25:43.416Z,16.00
2019-03-25T21:28:12.896Z,20.73
2019-03-25T21:30:48.158Z,24.73
2019-03-25T21:33:14.439Z,16.57
2019-03-25T21:35:43.986Z,21.00
2019-03-25T21:38:13.446Z,19.10
2019-03-25T21:40:42.973Z,17.17
2019-03-25T21:43:12.518Z,19.77
2019-03-25T21:45:42.059Z,21.40
2019-03-25T21:48:11.517Z,16.10
2019-03-25T21:50:41.015Z,18.83
2019-03-25T21:53:10.488Z,18.43
2019-03-25T21:55:39.937Z,17.17
2019-03-25T21:58:09.445Z,20.07
2019-03-25T22:00:38.887Z,21.53
2019-03-25T22:03:12.109Z,22.20
2019-03-25T22:05:39.596Z,22.23
2019-03-25T22:08:09.065Z,15.83
2019-03-25T22:10:38.786Z,17.10
2019-03-25T22:13:08.256Z,18.97
2019-03-25T22:15:37.714Z,21.83
2019-03-25T22:18:07.169Z,17.77
2019-03-25T22:20:36.632Z,22.13
2019-03-25T22:23:06.092Z,21.40
2019-03-25T22:25:35.549Z,18.00
2019-03-25T22:28:05.002Z,22.17
2019-03-25T22:30:34.454Z,25.47
2019-03-25T22:33:03.924Z,21.17
2019-03-25T22:35:33.368Z,21.43
2019-03-25T22:38:03.209Z,19.43
2019-03-25T22:40:32.656Z,21.00
2019-03-25T22:43:02.105Z,17.13
2019-03-25T22:45:31.612Z,20.83
2019-03-25T22:48:01.436Z,24.83
2019-03-25T22:50:31.926Z,21.30
2019-03-25T22:53:01.667Z,18.57
2019-03-25T22:55:31.127Z,23.37
2019-03-25T22:58:00.619Z,22.13
2019-03-25T23:00:41.082Z,23.10
2019-03-25T23:03:10.567Z,24.90
2019-03-25T23:05:40.115Z,28.37
2019-03-25T23:08:09.585Z,25.33
2019-03-25T23:10:39.033Z,21.20
2019-03-25T23:13:08.491Z,24.67
2019-03-25T23:15:38.274Z,33.90
2019-03-25T23:18:07.808Z,26.00
2019-03-25T23:20:38.163Z,28.17
2019-03-25T23:23:07.625Z,27.23
2019-03-25T23:25:37.086Z,24.07
2019-03-25T23:28:08.049Z,25.53
2019-03-25T23:30:37.504Z,26.93
2019-03-25T23:33:06.988Z,32.47
2019-03-25T23:35:36.438Z,24.67
2019-03-25T23:38:05.895Z,20.93
2019-03-25T23:40:35.348Z,24.53
2019-03-25T23:43:05.097Z,27.17
2019-03-25T23:45:34.534Z,27.53
2019-03-25T23:48:04.024Z,28.80
2019-03-25T23:50:33.494Z,31.67
2019-03-25T23:53:02.948Z,35.50
2019-03-25T23:55:32.407Z,26.60
2019-03-25T23:58:02.221Z,28.23
